createdAt,value
2019-05-11T00:00:35.322Z,16.30
2019-05-11T00:03:04.007Z,16.30
2019-05-11T00:05:32.510Z,16.30
2019-05-11T00:08:01.067Z,16.20
2019-05-11T00:10:29.882Z,16.20
2019-05-11T00:12:58.703Z,16.20
2019-05-11T00:15:27.392Z,16.30
2019-05-11T00:17:55.879Z,16.30
2019-05-11T00:20:24.471Z,16.40
2019-05-11T00:22:53.056Z,16.50
2019-05-11T00:25:21.496Z,16.60
2019-05-11T00:27:49.955Z,16.60
2019-05-11T00:30:18.861Z,16.60
2019-05-11T00:32:47.319Z,16.50
2019-05-11T00:35:15.756Z,16.50
2019-05-11T00:37:44.222Z,16.50
2019-05-11T00:40:14.830Z,16.50
2019-05-11T00:42:43.183Z,16.50
2019-05-11T00:45:11.763Z,16.50
2019-05-11T00:47:40.311Z,16.50
2019-05-11T00:50:09.321Z,16.60
2019-05-11T00:52:37.891Z,16.60
2019-05-11T00:55:07.381Z,16.60
2019-05-11T00:57:35.914Z,16.60
2019-05-11T01:00:06.648Z,16.60
2019-05-11T01:02:35.127Z,16.50
2019-05-11T01:05:04.390Z,16.50
2019-05-11T01:07:32.931Z,16.40
2019-05-11T01:10:01.376Z,16.40
2019-05-11T01:12:29.845Z,16.30
2019-05-11T01:14:58.297Z,16.20
2019-05-11T01:17:26.834Z,16.10
2019-05-11T01:19:55.699Z,16.10
2019-05-11T01:22:24.156Z,16.00
2019-05-11T01:24:52.652Z,16.00
2019-05-11T01:27:21.107Z,16.00
2019-05-11T01:29:49.549Z,16.00
2019-05-11T01:32:18.021Z,16.00
2019-05-11T01:34:46.463Z,16.00
2019-05-11T01:37:14.927Z,15.90
2019-05-11T01:39:43.636Z,15.90
2019-05-11T01:42:12.103Z,15.80
2019-05-11T01:44:40.533Z,15.80
2019-05-11T01:47:08.974Z,15.80
2019-05-11T01:49:37.418Z,15.80
2019-05-11T01:52:05.851Z,15.80
2019-05-11T01:54:34.297Z,15.80
2019-05-11T01:57:02.752Z,15.70
2019-05-11T01:59:31.304Z,15.60
2019-05-11T02:01:59.777Z,15.60
2019-05-11T02:04:28.233Z,15.60
2019-05-11T02:06:56.743Z,15.70
2019-05-11T02:09:25.198Z,15.70
2019-05-11T02:11:53.640Z,15.70
2019-05-11T02:14:22.101Z,15.70
2019-05-11T02:16:50.529Z,15.60
2019-05-11T02:19:18.994Z,15.50
2019-05-11T02:21:47.428Z,15.50
2019-05-11T02:24:15.881Z,15.40
2019-05-11T02:26:44.319Z,15.40
2019-05-11T02:29:12.787Z,15.30
2019-05-11T02:31:41.228Z,15.20
2019-05-11T02:34:09.684Z,15.10
2019-05-11T02:36:38.130Z,15.00
2019-05-11T02:39:07.866Z,14.90
2019-05-11T02:41:37.543Z,14.80
2019-05-11T02:44:06.540Z,14.80
2019-05-11T02:46:34.985Z,14.80
2019-05-11T02:49:03.512Z,14.80
2019-05-11T02:51:32.180Z,14.70
2019-05-11T02:54:02.249Z,14.60
2019-05-11T02:56:30.687Z,14.40
2019-05-11T02:58:59.307Z,14.40
2019-05-11T03:01:27.739Z,14.40
2019-05-11T03:03:56.203Z,14.40
2019-05-11T03:06:24.633Z,14.50
2019-05-11T03:08:53.095Z,14.50
2019-05-11T03:11:21.532Z,14.60
2019-05-11T03:13:49.995Z,14.60
2019-05-11T03:16:18.419Z,14.60
2019-05-11T03:18:46.856Z,14.60
2019-05-11T03:21:15.311Z,14.60
2019-05-11T03:23:43.748Z,14.60
2019-05-11T03:26:12.211Z,14.50
2019-05-11T03:28:40.653Z,14.50
2019-05-11T03:31:09.110Z,14.60
2019-05-11T03:33:37.557Z,14.70
2019-05-11T03:36:06.009Z,14.60
2019-05-11T03:38:34.447Z,14.60
2019-05-11T03:41:02.933Z,14.60
2019-05-11T03:43:31.484Z,14.50
2019-05-11T03:45:59.947Z,14.50
2019-05-11T03:48:28.387Z,14.50
2019-05-11T03:50:56.841Z,14.50
2019-05-11T03:53:25.266Z,14.50
2019-05-11T03:55:53.734Z,14.50
2019-05-11T03:58:25.758Z,14.50
2019-05-11T04:00:52.431Z,14.40
2019-05-11T04:03:20.887Z,14.40
2019-05-11T04:05:49.420Z,14.40
2019-05-11T04:08:17.850Z,14.40
2019-05-11T04:10:46.319Z,14.40
2019-05-11T04:13:14.810Z,14.30
2019-05-11T04:15:43.262Z,14.30
2019-05-11T04:18:11.702Z,14.30
2019-05-11T04:20:40.154Z,14.40
2019-05-11T04:23:08.573Z,14.30
2019-05-11T04:25:37.039Z,14.40
2019-05-11T04:28:05.464Z,14.40
2019-05-11T04:30:33.929Z,14.40
2019-05-11T04:33:02.352Z,14.50
2019-05-11T04:35:30.808Z,14.50
2019-05-11T04:37:59.243Z,14.50
2019-05-11T04:40:27.676Z,14.60
2019-05-11T04:42:56.463Z,14.50
2019-05-11T04:45:25.116Z,14.50
2019-05-11T04:47:53.577Z,14.50
2019-05-11T04:50:22.103Z,14.50
2019-05-11T04:52:50.560Z,14.50
2019-05-11T04:55:18.987Z,14.60
2019-05-11T04:57:47.444Z,14.60
2019-05-11T05:00:16.618Z,14.70
2019-05-11T05:02:45.069Z,14.70
2019-05-11T05:05:13.566Z,14.60
2019-05-11T05:07:47.757Z,14.50
2019-05-11T05:10:14.088Z,14.50
2019-05-11T05:12:50.733Z,14.50
2019-05-11T05:15:12.711Z,14.50
2019-05-11T05:17:41.263Z,14.50
2019-05-11T05:20:09.940Z,14.60
2019-05-11T05:22:38.468Z,14.60
2019-05-11T05:25:07.808Z,14.70
2019-05-11T05:27:36.264Z,14.70
2019-05-11T05:30:06.829Z,14.80
2019-05-11T05:32:35.688Z,14.80
2019-05-11T05:35:05.864Z,14.80
2019-05-11T05:37:34.328Z,14.80
2019-05-11T05:40:02.958Z,14.90
2019-05-11T05:42:31.611Z,14.90
2019-05-11T05:45:00.363Z,14.90
2019-05-11T05:47:28.813Z,14.90
2019-05-11T05:49:57.255Z,15.00
2019-05-11T05:52:25.830Z,15.00
2019-05-11T05:54:54.292Z,14.90
2019-05-11T05:57:22.748Z,14.90
2019-05-11T05:59:51.188Z,14.90
2019-05-11T06:02:19.645Z,14.90
2019-05-11T06:04:48.156Z,14.90
2019-05-11T06:07:16.591Z,14.90
2019-05-11T06:09:45.044Z,15.00
2019-05-11T06:12:13.475Z,14.90
2019-05-11T06:14:41.932Z,15.00
2019-05-11T06:17:10.367Z,15.00
2019-05-11T06:19:38.953Z,15.00
2019-05-11T06:22:07.396Z,15.00
2019-05-11T06:24:35.859Z,14.90
2019-05-11T06:27:04.557Z,14.90
2019-05-11T06:29:33.010Z,15.00
2019-05-11T06:32:01.476Z,15.00
2019-05-11T06:34:29.923Z,15.10
2019-05-11T06:36:58.733Z,15.10
2019-05-11T06:39:27.187Z,15.20
2019-05-11T06:41:55.627Z,15.30
2019-05-11T06:44:24.109Z,15.40
2019-05-11T06:46:52.534Z,15.50
2019-05-11T06:49:21.511Z,15.60
2019-05-11T06:51:50.271Z,15.60
2019-05-11T06:54:18.816Z,15.70
2019-05-11T06:56:47.251Z,15.80
2019-05-11T06:59:15.725Z,15.90
2019-05-11T07:01:44.155Z,16.00
2019-05-11T07:04:12.669Z,16.10
2019-05-11T07:06:41.638Z,16.10
2019-05-11T07:09:10.101Z,16.20
2019-05-11T07:11:38.539Z,16.20
2019-05-11T07:14:19.985Z,16.30
2019-05-11T07:16:37.194Z,16.40
2019-05-11T07:19:05.663Z,16.40
2019-05-11T07:21:34.447Z,16.40
2019-05-11T07:24:02.904Z,16.40
2019-05-11T07:26:31.358Z,16.50
2019-05-11T07:28:59.891Z,16.60
2019-05-11T07:31:28.443Z,16.60
2019-05-11T07:33:58.713Z,16.70
2019-05-11T07:36:28.249Z,16.80
2019-05-11T07:38:58.017Z,16.80
2019-05-11T07:41:28.140Z,16.80
2019-05-11T07:43:58.922Z,16.80
2019-05-11T07:46:28.800Z,16.90
2019-05-11T07:48:58.460Z,16.90
2019-05-11T07:51:28.777Z,16.80
2019-05-11T07:53:57.916Z,16.90
2019-05-11T07:56:28.575Z,16.80
2019-05-11T07:58:58.024Z,16.70
2019-05-11T08:01:28.260Z,16.60
2019-05-11T08:03:58.643Z,16.50
2019-05-11T08:06:28.587Z,16.50
2019-05-11T08:08:58.774Z,16.50
2019-05-11T08:11:30.746Z,16.50
2019-05-11T08:13:58.526Z,16.50
2019-05-11T08:16:28.454Z,16.60
2019-05-11T08:18:58.890Z,16.60
2019-05-11T08:21:28.399Z,16.70
2019-05-11T08:23:58.728Z,16.80
2019-05-11T08:26:28.329Z,16.90
2019-05-11T08:28:57.877Z,17.00
2019-05-11T08:31:27.967Z,17.00
2019-05-11T08:33:58.289Z,17.10
2019-05-11T08:36:28.943Z,17.10
2019-05-11T08:38:58.524Z,17.20
2019-05-11T08:41:28.101Z,17.20
2019-05-11T08:43:58.687Z,17.20
2019-05-11T08:46:27.937Z,17.20
2019-05-11T08:48:59.375Z,17.20
2019-05-11T08:51:28.012Z,17.20
2019-05-11T08:53:58.350Z,17.20
2019-05-11T08:56:28.876Z,17.20
2019-05-11T08:58:58.906Z,17.20
2019-05-11T09:01:28.691Z,17.20
2019-05-11T09:03:58.296Z,17.30
2019-05-11T09:06:28.380Z,17.30
2019-05-11T09:08:58.334Z,17.30
2019-05-11T09:11:28.377Z,17.30
2019-05-11T09:13:58.062Z,17.40
2019-05-11T09:16:28.848Z,17.40
2019-05-11T09:18:58.142Z,17.40
2019-05-11T09:21:28.161Z,17.50
2019-05-11T09:23:57.886Z,17.50
2019-05-11T09:26:28.673Z,17.50
2019-05-11T09:28:58.207Z,17.50
2019-05-11T09:31:28.015Z,17.50
2019-05-11T09:33:58.406Z,17.50
2019-05-11T09:36:28.526Z,17.60
2019-05-11T09:38:58.122Z,17.60
2019-05-11T09:41:28.963Z,17.60
2019-05-11T09:43:58.707Z,17.60
2019-05-11T09:46:27.938Z,17.70
2019-05-11T09:48:58.806Z,17.70
2019-05-11T09:51:28.750Z,17.70
2019-05-11T09:53:58.915Z,17.70
2019-05-11T09:56:28.745Z,17.80
2019-05-11T09:58:58.184Z,17.80
2019-05-11T10:01:26.898Z,17.80
2019-05-11T10:03:55.334Z,17.80
2019-05-11T10:06:23.801Z,17.80
2019-05-11T10:08:52.237Z,17.80
2019-05-11T10:11:20.669Z,17.80
2019-05-11T10:13:49.142Z,17.90
2019-05-11T10:16:18.067Z,17.90
2019-05-11T10:18:49.061Z,18.00
2019-05-11T10:21:18.800Z,18.10
2019-05-11T10:23:49.044Z,18.10
2019-05-11T10:26:18.771Z,18.00
2019-05-11T10:28:48.266Z,18.00
2019-05-11T10:31:18.038Z,17.90
2019-05-11T10:33:48.871Z,17.90
2019-05-11T10:36:18.810Z,17.80
2019-05-11T10:38:48.680Z,17.70
2019-05-11T10:41:18.440Z,17.70
2019-05-11T10:43:48.868Z,17.70
2019-05-11T10:46:23.034Z,17.70
2019-05-11T10:48:48.317Z,17.70
2019-05-11T10:51:18.335Z,17.80
2019-05-11T10:53:51.307Z,17.90
2019-05-11T10:56:18.077Z,17.90
2019-05-11T10:58:48.285Z,18.00
2019-05-11T11:01:18.111Z,18.00
2019-05-11T11:03:48.390Z,18.00
2019-05-11T11:06:18.909Z,18.10
2019-05-11T11:08:48.638Z,18.10
2019-05-11T11:11:18.501Z,18.10
2019-05-11T11:13:47.996Z,18.10
2019-05-11T11:16:32.786Z,18.20
2019-05-11T11:18:48.561Z,18.10
2019-05-11T11:21:22.114Z,18.10
2019-05-11T11:23:48.130Z,18.10
2019-05-11T11:26:18.515Z,18.10
2019-05-11T11:28:47.722Z,18.10
2019-05-11T11:31:18.644Z,18.10
2019-05-11T11:33:48.985Z,18.20
2019-05-11T11:36:17.869Z,18.20
2019-05-11T11:38:47.883Z,18.20
2019-05-11T11:41:18.634Z,18.20
2019-05-11T11:43:48.410Z,18.20
2019-05-11T11:46:18.880Z,18.20
2019-05-11T11:48:48.968Z,18.30
2019-05-11T11:51:18.804Z,18.30
2019-05-11T11:53:47.949Z,18.30
2019-05-11T11:56:18.897Z,18.30
2019-05-11T11:58:48.863Z,18.30
2019-05-11T12:01:18.967Z,18.30
2019-05-11T12:03:48.731Z,18.20
2019-05-11T12:06:18.214Z,18.20
2019-05-11T12:08:49.656Z,18.20
2019-05-11T12:11:18.946Z,18.20
2019-05-11T12:13:47.748Z,18.20
2019-05-11T12:16:18.064Z,18.20
2019-05-11T12:18:48.584Z,18.20
2019-05-11T12:21:18.607Z,18.20
2019-05-11T12:23:48.619Z,18.40
2019-05-11T12:26:17.847Z,18.50
2019-05-11T12:28:48.781Z,18.70
2019-05-11T12:31:18.468Z,18.80
2019-05-11T12:33:48.211Z,19.00
2019-05-11T12:36:18.837Z,19.10
2019-05-11T12:38:48.870Z,19.30
2019-05-11T12:41:18.998Z,19.30
2019-05-11T12:43:48.829Z,19.20
2019-05-11T12:46:18.884Z,19.10
2019-05-11T12:48:48.499Z,19.00
2019-05-11T12:51:18.611Z,18.80
2019-05-11T12:53:47.713Z,18.60
2019-05-11T12:56:18.742Z,18.50
2019-05-11T12:58:49.203Z,18.40
2019-05-11T13:01:18.706Z,18.30
2019-05-11T13:03:49.212Z,18.20
2019-05-11T13:06:19.112Z,18.10
2019-05-11T13:08:48.315Z,18.00
2019-05-11T13:11:18.639Z,18.00
2019-05-11T13:13:48.367Z,17.90
2019-05-11T13:16:18.312Z,17.90
2019-05-11T13:18:48.784Z,17.80
2019-05-11T13:21:18.287Z,17.60
2019-05-11T13:23:48.926Z,17.40
2019-05-11T13:26:18.081Z,17.20
2019-05-11T13:28:48.452Z,17.20
2019-05-11T13:31:18.665Z,17.20
2019-05-11T13:33:48.131Z,17.20
2019-05-11T13:36:18.588Z,17.40
2019-05-11T13:38:48.231Z,17.40
2019-05-11T13:41:18.911Z,17.50
2019-05-11T13:43:48.514Z,17.60
2019-05-11T13:46:18.035Z,17.70
2019-05-11T13:48:47.599Z,17.70
2019-05-11T13:51:18.183Z,17.80
2019-05-11T13:53:48.260Z,17.80
2019-05-11T13:56:18.391Z,17.80
2019-05-11T13:58:48.752Z,17.80
2019-05-11T14:01:18.503Z,17.90
2019-05-11T14:03:48.459Z,17.90
2019-05-11T14:06:18.406Z,17.90
2019-05-11T14:08:48.160Z,17.80
2019-05-11T14:11:18.176Z,17.70
2019-05-11T14:13:48.084Z,17.70
2019-05-11T14:16:18.535Z,17.60
2019-05-11T14:18:48.917Z,17.50
2019-05-11T14:21:18.527Z,17.40
2019-05-11T14:23:48.411Z,17.30
2019-05-11T14:26:19.251Z,17.30
2019-05-11T14:28:48.205Z,17.20
2019-05-11T14:31:18.878Z,17.20
2019-05-11T14:33:48.933Z,17.10
2019-05-11T14:36:18.558Z,17.10
2019-05-11T14:38:48.691Z,17.00
2019-05-11T14:41:18.223Z,17.00
2019-05-11T14:43:48.955Z,16.90
2019-05-11T14:46:18.236Z,16.80
2019-05-11T14:48:48.083Z,16.80
2019-05-11T14:51:18.003Z,16.80
2019-05-11T14:53:48.110Z,16.80
2019-05-11T14:56:19.091Z,16.80
2019-05-11T14:58:49.054Z,16.90
2019-05-11T15:01:18.321Z,16.80
2019-05-11T15:03:48.683Z,16.80
2019-05-11T15:06:18.912Z,16.70
2019-05-11T15:08:48.109Z,16.70
2019-05-11T15:11:18.871Z,16.70
2019-05-11T15:13:48.802Z,16.70
2019-05-11T15:16:18.772Z,16.80
2019-05-11T15:18:48.540Z,16.80
2019-05-11T15:21:18.987Z,16.80
2019-05-11T15:23:47.825Z,16.80
2019-05-11T15:26:18.469Z,16.80
2019-05-11T15:28:48.642Z,16.80
2019-05-11T15:31:21.890Z,16.80
2019-05-11T15:33:48.916Z,16.80
2019-05-11T15:36:19.299Z,16.80
2019-05-11T15:38:48.374Z,16.80
2019-05-11T15:41:17.700Z,16.80
2019-05-11T15:43:47.990Z,16.90
2019-05-11T15:46:19.412Z,16.80
2019-05-11T15:48:56.676Z,16.80
2019-05-11T15:51:18.997Z,16.80
2019-05-11T15:53:50.064Z,16.90
2019-05-11T15:56:18.970Z,16.90
2019-05-11T15:58:48.572Z,16.80
2019-05-11T16:01:18.558Z,16.80
2019-05-11T16:03:49.681Z,16.70
2019-05-11T16:06:18.663Z,16.70
2019-05-11T16:08:47.425Z,16.60
2019-05-11T16:11:18.131Z,16.60
2019-05-11T16:13:48.190Z,16.60
2019-05-11T16:16:16.367Z,16.70
2019-05-11T16:18:44.860Z,16.60
2019-05-11T16:21:13.314Z,16.60
2019-05-11T16:23:41.751Z,16.50
2019-05-11T16:26:10.203Z,16.40
2019-05-11T16:28:38.655Z,16.30
2019-05-11T16:31:09.178Z,16.30
2019-05-11T16:33:37.358Z,16.30
2019-05-11T16:36:08.773Z,16.20
2019-05-11T16:38:38.003Z,16.20
2019-05-11T16:41:06.381Z,16.10
2019-05-11T16:43:34.817Z,16.00
2019-05-11T16:46:03.281Z,15.90
2019-05-11T16:48:31.716Z,15.70
2019-05-11T16:51:00.179Z,15.60
2019-05-11T16:53:28.639Z,15.60
2019-05-11T16:55:57.728Z,15.60
2019-05-11T16:58:27.858Z,15.50
2019-05-11T17:00:58.188Z,15.50
2019-05-11T17:03:27.922Z,15.40
2019-05-11T17:05:58.651Z,15.40
2019-05-11T17:08:27.701Z,15.40
2019-05-11T17:10:59.587Z,15.30
2019-05-11T17:13:28.232Z,15.40
2019-05-11T17:15:58.311Z,15.40
2019-05-11T17:18:28.254Z,15.40
2019-05-11T17:20:58.391Z,15.40
2019-05-11T17:23:48.749Z,15.40
2019-05-11T17:26:18.969Z,15.40
2019-05-11T17:28:48.936Z,15.40
2019-05-11T17:31:18.795Z,15.30
2019-05-11T17:33:47.868Z,15.10
2019-05-11T17:36:18.650Z,15.00
2019-05-11T17:38:47.884Z,14.90
2019-05-11T17:41:16.711Z,14.80
2019-05-11T17:43:45.145Z,14.70
2019-05-11T17:46:13.592Z,14.70
2019-05-11T17:48:42.617Z,14.70
2019-05-11T17:51:21.345Z,14.60
2019-05-11T17:53:42.054Z,14.60
2019-05-11T17:56:10.562Z,14.50
2019-05-11T17:58:39.017Z,14.40
2019-05-11T18:01:09.324Z,14.30
2019-05-11T18:03:38.403Z,14.20
2019-05-11T18:06:08.489Z,14.20
2019-05-11T18:08:37.254Z,14.10
2019-05-11T18:11:08.155Z,14.10
2019-05-11T18:13:35.980Z,14.10
2019-05-11T18:16:04.688Z,14.10
2019-05-11T18:18:33.411Z,14.20
2019-05-11T18:21:02.031Z,14.20
2019-05-11T18:23:30.496Z,14.10
2019-05-11T18:25:58.988Z,14.00
2019-05-11T18:28:29.030Z,14.00
2019-05-11T18:30:58.195Z,14.00
2019-05-11T18:33:27.732Z,14.10
2019-05-11T18:35:58.334Z,14.10
2019-05-11T18:38:27.690Z,14.20
2019-05-11T18:40:58.063Z,14.20
2019-05-11T18:43:28.038Z,14.20
2019-05-11T18:45:58.114Z,14.20
2019-05-11T18:48:28.934Z,14.20
2019-05-11T18:50:59.026Z,14.10
2019-05-11T18:53:28.807Z,14.00
2019-05-11T18:55:58.970Z,13.90
2019-05-11T18:58:28.206Z,13.70
2019-05-11T19:00:56.675Z,13.60
2019-05-11T19:03:25.175Z,13.50
2019-05-11T19:05:53.783Z,13.50
2019-05-11T19:08:22.236Z,13.40
2019-05-11T19:10:51.010Z,13.40
2019-05-11T19:13:19.524Z,13.40
2019-05-11T19:15:48.665Z,13.30
2019-05-11T19:18:17.662Z,13.20
2019-05-11T19:20:49.110Z,13.10
2019-05-11T19:23:18.560Z,13.20
2019-05-11T19:25:51.337Z,13.10
2019-05-11T19:28:19.918Z,13.10
2019-05-11T19:30:48.831Z,13.10
2019-05-11T19:33:18.997Z,13.10
2019-05-11T19:35:48.165Z,13.00
2019-05-11T19:38:18.770Z,12.90
2019-05-11T19:40:48.424Z,12.90
2019-05-11T19:43:18.589Z,12.90
2019-05-11T19:45:48.690Z,13.00
2019-05-11T19:48:17.658Z,13.00
2019-05-11T19:51:00.907Z,13.10
2019-05-11T19:53:18.639Z,13.20
2019-05-11T19:55:47.896Z,13.20
2019-05-11T19:58:19.168Z,13.30
2019-05-11T20:00:48.839Z,13.30
2019-05-11T20:03:18.230Z,13.30
2019-05-11T20:05:48.549Z,13.30
2019-05-11T20:08:18.411Z,13.30
2019-05-11T20:10:48.666Z,13.30
2019-05-11T20:13:17.969Z,13.30
2019-05-11T20:15:48.462Z,13.40
2019-05-11T20:18:18.362Z,13.40
2019-05-11T20:20:48.096Z,13.50
2019-05-11T20:23:16.961Z,13.50
2019-05-11T20:25:47.633Z,13.60
2019-05-11T20:28:18.007Z,13.70
2019-05-11T20:30:48.039Z,13.80
2019-05-11T20:33:18.748Z,13.80
2019-05-11T20:35:48.660Z,13.90
2019-05-11T20:38:18.749Z,13.90
2019-05-11T20:40:48.393Z,14.00
2019-05-11T20:43:18.596Z,14.00
2019-05-11T20:45:48.598Z,14.00
2019-05-11T20:48:18.512Z,14.10
2019-05-11T20:50:48.435Z,14.10
2019-05-11T20:53:18.068Z,14.10
2019-05-11T20:55:47.934Z,14.10
2019-05-11T20:58:18.833Z,14.00
2019-05-11T21:00:48.979Z,14.00
2019-05-11T21:03:17.065Z,14.00
2019-05-11T21:05:45.574Z,14.00
2019-05-11T21:08:14.014Z,14.00
2019-05-11T21:10:42.461Z,14.00
2019-05-11T21:13:12.718Z,14.00
2019-05-11T21:15:41.171Z,14.00
2019-05-11T21:18:09.649Z,14.00
2019-05-11T21:20:38.288Z,14.10
2019-05-11T21:23:08.258Z,14.10
2019-05-11T21:25:37.789Z,14.10
2019-05-11T21:28:08.581Z,14.10
2019-05-11T21:30:39.647Z,14.10
2019-05-11T21:33:08.642Z,14.10
2019-05-11T21:35:38.593Z,14.00
2019-05-11T21:38:07.244Z,14.00
2019-05-11T21:40:37.906Z,14.00
2019-05-11T21:43:05.859Z,14.00
2019-05-11T21:45:37.564Z,14.00
2019-05-11T21:48:04.507Z,14.00
2019-05-11T21:50:33.045Z,14.00
2019-05-11T21:53:01.526Z,14.00
2019-05-11T21:55:30.070Z,14.00
2019-05-11T21:57:58.592Z,14.00
2019-05-11T22:00:29.029Z,14.00
2019-05-11T22:02:57.863Z,14.00
2019-05-11T22:05:28.345Z,13.90
2019-05-11T22:07:58.254Z,13.90
2019-05-11T22:10:28.319Z,13.70
2019-05-11T22:12:57.165Z,13.60
2019-05-11T22:15:25.717Z,13.50
2019-05-11T22:17:54.167Z,13.40
2019-05-11T22:20:22.618Z,13.20
2019-05-11T22:22:51.067Z,13.10
2019-05-11T22:25:19.506Z,13.00
2019-05-11T22:27:48.819Z,12.90
2019-05-11T22:30:18.494Z,12.80
2019-05-11T22:32:47.750Z,12.60
2019-05-11T22:35:18.364Z,12.50
2019-05-11T22:37:48.944Z,12.50
2019-05-11T22:40:17.670Z,12.40
2019-05-11T22:42:46.148Z,12.50
2019-05-11T22:45:14.823Z,12.40
2019-05-11T22:47:43.299Z,12.40
2019-05-11T22:50:11.831Z,12.40
2019-05-11T22:52:40.838Z,12.40
2019-05-11T22:55:12.024Z,12.30
2019-05-11T22:57:40.053Z,12.30
2019-05-11T23:00:10.241Z,12.20
2019-05-11T23:02:39.250Z,12.20
2019-05-11T23:05:09.035Z,12.20
2019-05-11T23:07:41.382Z,12.20
2019-05-11T23:10:09.791Z,12.20
2019-05-11T23:12:38.671Z,12.20
2019-05-11T23:15:10.066Z,12.20
2019-05-11T23:17:38.827Z,12.30
2019-05-11T23:20:07.984Z,12.30
2019-05-11T23:22:53.025Z,12.30
2019-05-11T23:25:08.505Z,12.40
2019-05-11T23:27:39.094Z,12.40
2019-05-11T23:30:08.745Z,12.40
2019-05-11T23:32:37.799Z,12.30
2019-05-11T23:35:08.402Z,12.20
2019-05-11T23:37:38.667Z,12.20
2019-05-11T23:40:09.416Z,12.20
2019-05-11T23:42:38.225Z,12.20
2019-05-11T23:45:08.957Z,12.10
2019-05-11T23:47:39.342Z,12.10
2019-05-11T23:50:09.288Z,12.20
2019-05-11T23:52:38.252Z,12.20
2019-05-11T23:55:08.291Z,12.20
2019-05-11T23:57:37.911Z,12.20
